createdAt,value
2023-03-11T00:01:25.474Z,99561.47
2023-03-11T00:03:55.132Z,99537.66
2023-03-11T00:06:24.789Z,99581.34
2023-03-11T00:08:54.870Z,99576.31
2023-03-11T00:11:25.230Z,99578.13
2023-03-11T00:13:54.852Z,99582.31
2023-03-11T00:16:27.208Z,99587.06
2023-03-11T00:18:58.116Z,99585.94
2023-03-11T00:21:27.857Z,99603.13
2023-03-11T00:24:01.074Z,99632.00
2023-03-11T00:26:30.709Z,99637.06
2023-03-11T00:29:00.438Z,99655.81
2023-03-11T00:31:32.899Z,99648.53
2023-03-11T00:34:02.537Z,99651.69
2023-03-11T00:36:34.115Z,99659.50
2023-03-11T00:39:07.177Z,99650.44
2023-03-11T00:41:37.118Z,99665.91
2023-03-11T00:44:06.940Z,99665.91
2023-03-11T00:46:39.198Z,99662.25
2023-03-11T00:49:08.961Z,99674.09
2023-03-11T00:51:38.627Z,99670.41
2023-03-11T00:54:08.538Z,99641.34
2023-03-11T00:56:38.690Z,99682.41
2023-03-11T00:59:08.947Z,99687.97
2023-03-11T01:01:41.415Z,99698.81
2023-03-11T01:04:11.183Z,99664.75
2023-03-11T01:06:45.654Z,99686.94
2023-03-11T01:09:15.636Z,99701.50
2023-03-11T01:11:46.428Z,99697.94
2023-03-11T01:14:16.314Z,99721.31
2023-03-11T01:16:50.011Z,99731.47
2023-03-11T01:19:19.629Z,99710.53
2023-03-11T01:21:50.145Z,99723.91
2023-03-11T01:24:19.952Z,99746.19
2023-03-11T01:26:49.644Z,99734.25
2023-03-11T01:29:20.069Z,99750.69
2023-03-11T01:31:52.310Z,99759.97
2023-03-11T01:34:21.948Z,99734.84
2023-03-11T01:36:51.580Z,99753.47
2023-03-11T01:39:22.621Z,99760.97
2023-03-11T01:41:53.170Z,99750.31
2023-03-11T01:44:22.858Z,99760.38
2023-03-11T01:47:22.765Z,99778.47
2023-03-11T01:49:55.205Z,99757.59
2023-03-11T01:52:25.042Z,99775.63
2023-03-11T01:54:55.596Z,99773.66
2023-03-11T01:57:25.342Z,99791.28
2023-03-11T02:00:01.314Z,99798.91
2023-03-11T02:02:35.462Z,99802.19
2023-03-11T02:05:08.451Z,99790.25
2023-03-11T02:07:38.145Z,99776.53
2023-03-11T02:10:09.472Z,99805.69
2023-03-11T02:12:40.356Z,99822.75
2023-03-11T02:15:12.812Z,99798.28
2023-03-11T02:17:45.007Z,99819.31
2023-03-11T02:20:25.299Z,99804.16
2023-03-11T02:22:58.891Z,99789.09
2023-03-11T02:25:37.070Z,99803.53
2023-03-11T02:28:13.183Z,99752.78
2023-03-11T02:30:45.487Z,99809.34
2023-03-11T02:33:17.416Z,99816.38
2023-03-11T02:35:49.067Z,99824.03
2023-03-11T02:38:19.115Z,99818.41
2023-03-11T02:40:55.707Z,99797.91
2023-03-11T02:43:37.248Z,99831.44
2023-03-11T02:46:10.213Z,99825.47
2023-03-11T02:48:41.496Z,99834.88
2023-03-11T02:51:11.158Z,99848.50
2023-03-11T02:53:47.604Z,99840.13
2023-03-11T02:56:18.003Z,99827.47
2023-03-11T02:58:50.231Z,99838.03
2023-03-11T03:01:20.002Z,99851.00
2023-03-11T03:03:51.583Z,99833.75
2023-03-11T03:06:21.346Z,99858.31
2023-03-11T03:08:53.411Z,99851.41
2023-03-11T03:11:23.228Z,99859.16
2023-03-11T03:13:55.418Z,99867.47
2023-03-11T03:16:25.178Z,99857.84
2023-03-11T03:18:55.036Z,99847.59
2023-03-11T03:21:24.772Z,99857.66
2023-03-11T03:23:55.071Z,99876.88
2023-03-11T03:26:24.729Z,99856.00
2023-03-11T03:28:57.094Z,99891.56
2023-03-11T03:31:26.888Z,99901.59
2023-03-11T03:33:56.645Z,99867.84
2023-03-11T03:36:26.578Z,99901.97
2023-03-11T03:39:01.665Z,99856.97
2023-03-11T03:41:35.457Z,99907.66
2023-03-11T03:44:08.866Z,99909.59
2023-03-11T03:46:39.644Z,99903.28
2023-03-11T03:49:11.335Z,99916.41
2023-03-11T03:51:41.556Z,99924.94
2023-03-11T03:54:16.341Z,99936.41
2023-03-11T03:56:46.342Z,99942.72
2023-03-11T03:59:18.612Z,99916.34
2023-03-11T04:01:53.052Z,99951.75
2023-03-11T04:04:23.439Z,99947.75
2023-03-11T04:06:53.611Z,99941.69
2023-03-11T04:09:23.755Z,99960.59
2023-03-11T04:11:53.616Z,99965.47
2023-03-11T04:14:26.228Z,99971.19
2023-03-11T04:17:01.557Z,99966.03
2023-03-11T04:19:31.775Z,99951.53
2023-03-11T04:22:01.838Z,99944.00
2023-03-11T04:24:32.118Z,99977.16
2023-03-11T04:27:02.170Z,99973.41
2023-03-11T04:29:36.061Z,99971.88
2023-03-11T04:32:05.908Z,99979.88
2023-03-11T04:34:36.648Z,99956.75
2023-03-11T04:37:06.721Z,99974.97
2023-03-11T04:39:39.043Z,99972.69
2023-03-11T04:42:09.697Z,99988.13
2023-03-11T04:44:43.253Z,99979.53
2023-03-11T04:47:13.230Z,99999.56
2023-03-11T04:49:43.253Z,99967.84
2023-03-11T04:52:14.133Z,99977.34
2023-03-11T04:54:44.101Z,100000.25
2023-03-11T04:57:13.786Z,100015.19
2023-03-11T04:59:48.914Z,99992.78
2023-03-11T05:02:18.907Z,100020.22
2023-03-11T05:04:56.115Z,100002.13
2023-03-11T05:07:25.909Z,99958.38
2023-03-11T05:09:56.171Z,99984.47
2023-03-11T05:12:26.259Z,100010.88
2023-03-11T05:14:59.875Z,100017.41
2023-03-11T05:17:29.580Z,99990.75
2023-03-11T05:19:59.329Z,100021.47
2023-03-11T05:22:34.196Z,100027.63
2023-03-11T05:25:04.158Z,100051.28
2023-03-11T05:27:33.919Z,100036.97
2023-03-11T05:30:06.765Z,100053.16
2023-03-11T05:32:38.651Z,100066.81
2023-03-11T05:35:10.691Z,100051.28
2023-03-11T05:37:40.594Z,100061.16
2023-03-11T05:40:12.973Z,100064.44
2023-03-11T05:42:43.060Z,100038.59
2023-03-11T05:45:18.092Z,100054.56
2023-03-11T05:47:50.497Z,100045.75
2023-03-11T05:50:20.865Z,100056.31
2023-03-11T05:52:52.065Z,100081.72
2023-03-11T05:55:22.987Z,100080.94
2023-03-11T05:57:54.084Z,100059.31
2023-03-11T06:00:29.457Z,100094.72
2023-03-11T06:03:01.595Z,100067.47
2023-03-11T06:05:31.271Z,100104.00
2023-03-11T06:08:01.070Z,100101.81
2023-03-11T06:10:31.245Z,100106.25
2023-03-11T06:13:00.974Z,100103.53
2023-03-11T06:15:38.972Z,100109.50
2023-03-11T06:18:08.976Z,100074.22
2023-03-11T06:20:39.165Z,100121.31
2023-03-11T06:23:08.908Z,100107.59
2023-03-11T06:25:38.717Z,100123.06
2023-03-11T06:28:08.949Z,100115.44
2023-03-11T06:30:41.609Z,100129.38
2023-03-11T06:33:14.950Z,100135.97
2023-03-11T06:35:45.703Z,100146.28
2023-03-11T06:38:15.363Z,100121.63
2023-03-11T06:40:45.137Z,100143.25
2023-03-11T06:43:15.129Z,100143.34
2023-03-11T06:45:49.295Z,100150.41
2023-03-11T06:48:19.302Z,100158.38
2023-03-11T06:50:56.674Z,100174.97
2023-03-11T06:53:27.613Z,100173.00
2023-03-11T06:56:04.700Z,100168.03
2023-03-11T06:58:38.780Z,100179.88
2023-03-11T07:01:14.389Z,100184.47
2023-03-11T07:03:44.461Z,100183.84
2023-03-11T07:06:16.463Z,100180.25
2023-03-11T07:08:46.597Z,100162.16
2023-03-11T07:11:18.962Z,100205.09
2023-03-11T07:13:49.883Z,100212.06
2023-03-11T07:16:25.384Z,100222.66
2023-03-11T07:19:02.882Z,100181.88
2023-03-11T07:21:34.430Z,100215.25
2023-03-11T07:24:05.688Z,100224.97
2023-03-11T07:26:37.604Z,100208.22
2023-03-11T07:29:07.341Z,100233.34
2023-03-11T07:31:41.308Z,100231.13
2023-03-11T07:34:11.683Z,100244.72
2023-03-11T07:36:43.002Z,100252.78
2023-03-11T07:39:16.540Z,100255.06
2023-03-11T07:41:46.941Z,100255.38
2023-03-11T07:44:18.272Z,100241.97
2023-03-11T07:46:50.626Z,100252.63
2023-03-11T07:49:20.346Z,100200.56
2023-03-11T07:51:50.088Z,100250.56
2023-03-11T07:54:19.782Z,100263.91
2023-03-11T07:56:49.434Z,100274.38
2023-03-11T07:59:19.101Z,100297.06
2023-03-11T08:01:51.738Z,100263.31
2023-03-11T08:04:21.392Z,100276.25
2023-03-11T08:06:51.439Z,100293.47
2023-03-11T08:09:21.279Z,100293.81
2023-03-11T08:11:50.894Z,100310.25
2023-03-11T08:14:20.554Z,100319.50
2023-03-11T08:16:52.762Z,100329.69
2023-03-11T08:19:22.414Z,100322.06
2023-03-11T08:21:52.031Z,100322.75
2023-03-11T08:24:21.742Z,100312.78
2023-03-11T08:26:51.475Z,100338.59
2023-03-11T08:29:21.147Z,100340.09
2023-03-11T08:31:53.380Z,100340.00
2023-03-11T08:34:23.836Z,100331.28
2023-03-11T08:36:53.675Z,100349.56
2023-03-11T08:39:24.006Z,100360.00
2023-03-11T08:41:53.679Z,100357.28
2023-03-11T08:44:23.440Z,100316.63
2023-03-11T08:46:55.758Z,100368.00
2023-03-11T08:49:26.542Z,100352.53
2023-03-11T08:51:56.202Z,100329.53
2023-03-11T08:54:25.820Z,100351.25
2023-03-11T08:56:55.469Z,100365.69
2023-03-11T08:59:25.114Z,100368.59
2023-03-11T09:01:57.311Z,100372.28
2023-03-11T09:04:26.974Z,100368.75
2023-03-11T09:06:56.627Z,100351.25
2023-03-11T09:09:26.333Z,100357.31
2023-03-11T09:11:56.026Z,100328.25
2023-03-11T09:14:25.705Z,100387.97
2023-03-11T09:16:57.928Z,100384.53
2023-03-11T09:19:30.330Z,100394.91
2023-03-11T09:22:02.596Z,100396.00
2023-03-11T09:24:32.628Z,100399.19
2023-03-11T09:27:02.248Z,100374.88
2023-03-11T09:29:32.381Z,100383.25
2023-03-11T09:32:04.726Z,100404.50
2023-03-11T09:34:34.408Z,100403.38
2023-03-11T09:37:04.156Z,100409.34
2023-03-11T09:39:34.038Z,100399.97
2023-03-11T09:42:14.189Z,100403.66
2023-03-11T09:44:47.949Z,100418.47
2023-03-11T09:47:41.745Z,100422.94
2023-03-11T09:50:18.529Z,100402.94
2023-03-11T09:52:55.688Z,100410.22
2023-03-11T09:55:37.437Z,100425.75
2023-03-11T09:58:14.772Z,100406.09
2023-03-11T10:00:45.162Z,100395.59
2023-03-11T10:03:34.287Z,100405.84
2023-03-11T10:06:17.545Z,100421.44
2023-03-11T10:08:51.494Z,100429.84
2023-03-11T10:11:47.063Z,100431.72
2023-03-11T10:14:31.171Z,100418.41
2023-03-11T10:17:10.845Z,100430.25
2023-03-11T10:19:50.059Z,100431.97
2023-03-11T10:22:28.614Z,100413.03
2023-03-11T10:25:06.030Z,100402.66
2023-03-11T10:27:43.540Z,100430.25
2023-03-11T10:30:22.057Z,100436.69
2023-03-11T10:32:57.364Z,100440.56
2023-03-11T10:35:36.795Z,100432.84
2023-03-11T10:38:14.601Z,100427.00
2023-03-11T10:40:46.860Z,100433.66
2023-03-11T10:43:20.364Z,100437.38
2023-03-11T10:45:53.251Z,100454.03
2023-03-11T10:48:24.248Z,100452.66
2023-03-11T10:51:01.928Z,100437.19
2023-03-11T10:53:32.197Z,100438.78
2023-03-11T10:56:02.551Z,100461.09
2023-03-11T10:58:33.515Z,100453.66
2023-03-11T11:01:06.325Z,100450.94
2023-03-11T11:03:36.950Z,100446.66
2023-03-11T11:06:21.969Z,100465.66
2023-03-11T11:08:51.692Z,100468.78
2023-03-11T11:11:25.911Z,100470.97
2023-03-11T11:14:02.978Z,100399.44
2023-03-11T11:16:33.016Z,100472.03
2023-03-11T11:19:06.829Z,100448.06
2023-03-11T11:21:40.966Z,100470.84
2023-03-11T11:24:21.316Z,100428.69
2023-03-11T11:27:07.696Z,100464.94
2023-03-11T11:29:37.382Z,100436.38
2023-03-11T11:32:27.432Z,100474.50
2023-03-11T11:35:01.347Z,100474.53
2023-03-11T11:37:37.315Z,100468.41
2023-03-11T11:40:12.320Z,100469.72
2023-03-11T11:42:46.866Z,100474.03
2023-03-11T11:45:30.398Z,100470.31
2023-03-11T11:48:03.963Z,100463.00
2023-03-11T11:50:37.993Z,100473.03
2023-03-11T11:53:19.172Z,100465.94
2023-03-11T11:55:52.615Z,100465.25
2023-03-11T11:58:22.931Z,100427.53
2023-03-11T12:01:05.011Z,100433.91
2023-03-11T12:03:54.466Z,100435.06
2023-03-11T12:06:32.261Z,100460.34
2023-03-11T12:09:16.216Z,100388.41
2023-03-11T12:11:56.224Z,100459.13
2023-03-11T12:14:32.274Z,100465.91
2023-03-11T12:17:04.491Z,100454.03
2023-03-11T12:19:42.407Z,100476.41
2023-03-11T12:22:54.126Z,100468.16
2023-03-11T12:25:34.279Z,100464.28
2023-03-11T12:28:16.657Z,100472.31
2023-03-11T12:30:50.554Z,100471.69
2023-03-11T12:33:25.457Z,100445.34
2023-03-11T12:35:57.261Z,100459.50
2023-03-11T12:38:34.286Z,100457.66
2023-03-11T12:41:11.512Z,100459.38
2023-03-11T12:44:24.200Z,100466.47
2023-03-11T12:47:34.623Z,100463.81
2023-03-11T12:50:43.711Z,100456.69
2023-03-11T12:53:19.530Z,100440.22
2023-03-11T12:56:07.896Z,100415.41
2023-03-11T12:59:05.372Z,100435.00
2023-03-11T13:02:06.111Z,100476.09
2023-03-11T13:04:53.884Z,100448.06
2023-03-11T13:07:44.725Z,100470.66
2023-03-11T13:10:18.528Z,100448.78
2023-03-11T13:12:50.451Z,100491.19
2023-03-11T13:15:50.223Z,100469.13
2023-03-11T13:18:27.042Z,100481.38
2023-03-11T13:21:01.755Z,100476.38
2023-03-11T13:23:37.348Z,100475.16
2023-03-11T13:26:31.645Z,100492.56
2023-03-11T13:29:32.122Z,100491.00
2023-03-11T13:32:23.974Z,100497.72
2023-03-11T13:35:04.290Z,100483.91
2023-03-11T13:37:45.032Z,100472.09
2023-03-11T13:40:25.751Z,100486.81
2023-03-11T13:42:58.612Z,100478.56
2023-03-11T13:45:35.096Z,100444.94
2023-03-11T13:48:15.928Z,100490.19
2023-03-11T13:50:50.828Z,100484.47
2023-03-11T13:53:25.841Z,100491.19
2023-03-11T13:55:55.597Z,100491.06
2023-03-11T13:58:27.323Z,100486.22
2023-03-11T14:00:59.215Z,100464.31
2023-03-11T14:03:36.364Z,100500.50
2023-03-11T14:06:09.859Z,100503.06
2023-03-11T14:08:40.626Z,100498.41
2023-03-11T14:11:20.435Z,100494.50
2023-03-11T14:13:52.975Z,100523.72
2023-03-11T14:16:26.669Z,100524.47
2023-03-11T14:19:08.967Z,100513.38
2023-03-11T14:21:38.808Z,100509.84
2023-03-11T14:24:19.534Z,100534.56
2023-03-11T14:26:50.204Z,100509.38
2023-03-11T14:29:23.312Z,100529.53
2023-03-11T14:31:52.974Z,100542.44
2023-03-11T14:34:27.541Z,100537.09
2023-03-11T14:36:59.675Z,100541.84
2023-03-11T14:39:32.108Z,100549.13
2023-03-11T14:42:07.190Z,100528.75
2023-03-11T14:44:41.597Z,100523.00
2023-03-11T14:47:21.227Z,100539.63
2023-03-11T14:49:55.680Z,100539.28
2023-03-11T14:52:37.298Z,100531.38
2023-03-11T14:55:15.057Z,100531.06
2023-03-11T14:57:48.728Z,100549.00
2023-03-11T15:00:22.134Z,100546.59
2023-03-11T15:03:14.837Z,100547.91
2023-03-11T15:05:53.132Z,100527.69
2023-03-11T15:08:25.315Z,100494.25
2023-03-11T15:11:21.729Z,100546.50
2023-03-11T15:13:53.196Z,100456.78
2023-03-11T15:16:29.263Z,100541.88
2023-03-11T15:18:59.370Z,100537.91
2023-03-11T15:21:32.211Z,100545.31
2023-03-11T15:24:06.657Z,100521.75
2023-03-11T15:26:38.558Z,100513.00
2023-03-11T15:29:17.064Z,100533.81
2023-03-11T15:31:48.130Z,100520.72
2023-03-11T15:34:30.683Z,100525.63
2023-03-11T15:37:09.261Z,100519.53
2023-03-11T15:39:47.781Z,100494.75
2023-03-11T15:42:22.979Z,100467.31
2023-03-11T15:45:05.833Z,100533.09
2023-03-11T15:47:36.071Z,100528.72
2023-03-11T15:50:24.030Z,100540.63
2023-03-11T15:52:58.838Z,100527.78
2023-03-11T15:55:29.947Z,100544.81
2023-03-11T15:58:05.280Z,100541.81
2023-03-11T16:00:35.378Z,100540.25
2023-03-11T16:03:05.195Z,100501.47
2023-03-11T16:05:34.959Z,100529.63
2023-03-11T16:08:07.495Z,100522.63
2023-03-11T16:10:37.946Z,100517.44
2023-03-11T16:13:07.806Z,100540.50
2023-03-11T16:15:39.244Z,100541.22
2023-03-11T16:18:10.573Z,100530.31
2023-03-11T16:20:44.439Z,100532.13
2023-03-11T16:23:22.338Z,100527.88
2023-03-11T16:25:52.767Z,100546.03
2023-03-11T16:28:22.460Z,100540.06
2023-03-11T16:30:53.386Z,100546.47
2023-03-11T16:33:23.081Z,100551.47
2023-03-11T16:35:52.807Z,100557.16
2023-03-11T16:38:26.135Z,100546.00
2023-03-11T16:40:59.578Z,100556.97
2023-03-11T16:43:30.039Z,100557.69
2023-03-11T16:45:59.692Z,100549.31
2023-03-11T16:48:29.410Z,100548.34
2023-03-11T16:50:59.108Z,100559.97
2023-03-11T16:53:31.614Z,100549.06
2023-03-11T16:56:01.345Z,100573.19
2023-03-11T16:58:31.044Z,100568.94
2023-03-11T17:01:00.787Z,100546.03
2023-03-11T17:03:40.991Z,100547.94
2023-03-11T17:06:12.974Z,100560.16
2023-03-11T17:08:48.971Z,100523.28
2023-03-11T17:11:19.866Z,100549.41
2023-03-11T17:13:49.875Z,100549.22
2023-03-11T17:16:19.622Z,100565.94
2023-03-11T17:18:49.666Z,100551.88
2023-03-11T17:21:20.119Z,100562.59
2023-03-11T17:23:54.326Z,100578.72
2023-03-11T17:26:25.301Z,100518.81
2023-03-11T17:28:55.096Z,100573.69
2023-03-11T17:31:24.868Z,100576.75
2023-03-11T17:33:54.691Z,100544.44
2023-03-11T17:36:24.428Z,100588.31
2023-03-11T17:38:57.632Z,100589.88
2023-03-11T17:41:27.254Z,100565.31
2023-03-11T17:43:56.879Z,100564.09
2023-03-11T17:46:26.612Z,100587.94
2023-03-11T17:48:56.266Z,100600.97
2023-03-11T17:51:27.905Z,100603.88
2023-03-11T17:54:00.331Z,100600.59
2023-03-11T17:56:30.236Z,100563.06
2023-03-11T17:59:01.378Z,100602.06
2023-03-11T18:01:31.775Z,100605.16
2023-03-11T18:04:01.932Z,100607.44
2023-03-11T18:06:31.914Z,100589.00
2023-03-11T18:09:04.296Z,100594.84
2023-03-11T18:11:34.520Z,100607.75
2023-03-11T18:14:04.180Z,100594.69
2023-03-11T18:16:34.599Z,100610.09
2023-03-11T18:19:04.329Z,100604.16
2023-03-11T18:21:34.624Z,100600.81
2023-03-11T18:24:07.449Z,100615.00
2023-03-11T18:26:37.107Z,100618.19
2023-03-11T18:29:06.907Z,100595.69
2023-03-11T18:31:38.766Z,100612.69
2023-03-11T18:34:13.540Z,100575.47
2023-03-11T18:36:44.239Z,100598.53
2023-03-11T18:39:16.484Z,100613.25
2023-03-11T18:41:46.239Z,100594.72
2023-03-11T18:44:16.218Z,100575.59
2023-03-11T18:46:45.960Z,100601.63
2023-03-11T18:49:16.522Z,100623.03
2023-03-11T18:51:46.203Z,100585.22
2023-03-11T18:54:18.442Z,100465.56
2023-03-11T18:56:48.082Z,100588.09
2023-03-11T18:59:17.758Z,100615.00
2023-03-11T19:01:47.402Z,100590.69
2023-03-11T19:04:17.028Z,100596.88
2023-03-11T19:06:46.688Z,100590.69
2023-03-11T19:09:18.994Z,100575.09
2023-03-11T19:11:49.068Z,100611.44
2023-03-11T19:14:18.720Z,100618.69
2023-03-11T19:16:48.482Z,100611.53
2023-03-11T19:19:18.146Z,100607.91
2023-03-11T19:21:47.880Z,100588.19
2023-03-11T19:24:20.158Z,100598.72
2023-03-11T19:26:49.808Z,100628.28
2023-03-11T19:29:19.794Z,100619.78
2023-03-11T19:31:49.466Z,100646.94
2023-03-11T19:34:21.458Z,100604.25
2023-03-11T19:36:51.146Z,100650.78
2023-03-11T19:39:23.446Z,100643.91
2023-03-11T19:41:54.024Z,100624.25
2023-03-11T19:44:23.769Z,100624.50
2023-03-11T19:46:53.470Z,100637.97
2023-03-11T19:49:23.105Z,100632.53
2023-03-11T19:51:52.988Z,100616.44
2023-03-11T19:54:25.291Z,100629.06
2023-03-11T19:56:55.006Z,100632.22
2023-03-11T19:59:24.715Z,100639.91
2023-03-11T20:01:54.425Z,100620.59
2023-03-11T20:04:24.110Z,100649.78
2023-03-11T20:06:53.887Z,100644.03
2023-03-11T20:09:26.135Z,100648.72
2023-03-11T20:11:56.358Z,100634.31
2023-03-11T20:14:26.106Z,100601.63
2023-03-11T20:16:55.864Z,100596.09
2023-03-11T20:19:25.549Z,100650.94
2023-03-11T20:21:55.267Z,100652.44
2023-03-11T20:24:27.574Z,100621.88
2023-03-11T20:26:57.314Z,100552.16
2023-03-11T20:29:27.025Z,100658.88
2023-03-11T20:31:56.910Z,100660.72
2023-03-11T20:34:26.582Z,100626.00
2023-03-11T20:36:56.303Z,100632.94
2023-03-11T20:39:28.626Z,100640.06
2023-03-11T20:41:58.340Z,100654.28
2023-03-11T20:44:28.059Z,100621.19
2023-03-11T20:46:57.737Z,100647.13
2023-03-11T20:49:27.401Z,100646.78
2023-03-11T20:51:57.102Z,100638.72
2023-03-11T20:54:29.385Z,100660.63
2023-03-11T20:56:59.103Z,100663.59
2023-03-11T20:59:28.759Z,100668.53
2023-03-11T21:01:58.623Z,100663.41
2023-03-11T21:04:28.371Z,100648.16
2023-03-11T21:06:58.091Z,100644.97
2023-03-11T21:09:30.697Z,100667.66
2023-03-11T21:12:01.052Z,100670.41
2023-03-11T21:14:30.762Z,100655.72
2023-03-11T21:17:00.539Z,100672.16
2023-03-11T21:19:30.348Z,100634.22
2023-03-11T21:22:00.382Z,100675.91
2023-03-11T21:24:32.708Z,100664.91
2023-03-11T21:27:02.356Z,100666.97
2023-03-11T21:29:32.019Z,100646.19
2023-03-11T21:32:01.747Z,100655.28
2023-03-11T21:34:31.552Z,100659.00
2023-03-11T21:37:01.282Z,100678.41
2023-03-11T21:39:33.698Z,100672.19
2023-03-11T21:42:03.408Z,100655.13
2023-03-11T21:44:33.160Z,100637.88
2023-03-11T21:47:02.974Z,100672.34
2023-03-11T21:49:32.814Z,100681.47
2023-03-11T21:52:02.747Z,100649.50
2023-03-11T21:54:35.203Z,100683.69
2023-03-11T21:57:05.069Z,100589.53
2023-03-11T21:59:34.783Z,100678.53
2023-03-11T22:02:04.801Z,100674.00
2023-03-11T22:04:34.641Z,100661.59
2023-03-11T22:07:04.660Z,100643.50
2023-03-11T22:09:37.137Z,100657.63
2023-03-11T22:12:07.706Z,100636.47
2023-03-11T22:14:37.457Z,100676.63
2023-03-11T22:17:07.338Z,100666.28
2023-03-11T22:19:37.039Z,100673.22
2023-03-11T22:22:06.846Z,100672.38
2023-03-11T22:24:39.088Z,100602.97
2023-03-11T22:27:08.781Z,100676.16
2023-03-11T22:29:39.150Z,100671.66
2023-03-11T22:32:08.937Z,100670.63
2023-03-11T22:34:38.759Z,100659.50
2023-03-11T22:37:08.465Z,100667.34
2023-03-11T22:39:40.673Z,100679.72
2023-03-11T22:42:10.905Z,100671.81
2023-03-11T22:44:40.527Z,100677.91
2023-03-11T22:47:10.247Z,100691.00
2023-03-11T22:49:39.905Z,100668.25
2023-03-11T22:52:09.567Z,100682.09
2023-03-11T22:54:42.149Z,100698.63
2023-03-11T22:57:11.815Z,100655.50
2023-03-11T22:59:41.518Z,100673.19
2023-03-11T23:02:11.227Z,100669.03
2023-03-11T23:04:40.889Z,100691.16
2023-03-11T23:07:10.507Z,100637.16
2023-03-11T23:09:43.085Z,100677.13
2023-03-11T23:12:12.842Z,100704.59
2023-03-11T23:14:45.203Z,100675.91
2023-03-11T23:17:14.984Z,100695.50
2023-03-11T23:19:44.626Z,100688.47
2023-03-11T23:22:14.268Z,100685.69
2023-03-11T23:24:46.501Z,100706.84
2023-03-11T23:27:16.339Z,100697.53
2023-03-11T23:29:47.907Z,100685.31
2023-03-11T23:32:17.629Z,100716.09
2023-03-11T23:34:47.343Z,100689.78
2023-03-11T23:37:17.025Z,100697.78
2023-03-11T23:39:49.250Z,100717.13
2023-03-11T23:42:25.713Z,100669.94
2023-03-11T23:44:56.155Z,100676.59
2023-03-11T23:47:25.804Z,100710.25
2023-03-11T23:49:55.463Z,100712.47
2023-03-11T23:52:25.248Z,100728.41
2023-03-11T23:54:57.955Z,100704.16
2023-03-11T23:57:27.653Z,100712.63
2023-03-11T23:59:57.414Z,100712.34
